Time;durP1;ratioP1;P1;durP2;ratioP2;P2;SDS_P1;SDS_P2;PMS_P1;PMS_P2;Temp;Humidity;BMP_temperature;BMP_pressure;BME280_temperature;BME280_humidity;BME280_pressure;Samples;Min_cycle;Max_cycle;Signal;HPM_P1;HPM_P2
2023/11/28 00:01:04;;;;;;;25.55;22.77;;;;;;;2.34;91.33;95900.03;4982643;28;20037;-69
2023/11/28 00:03:31;;;;;;;34.03;27.25;;;;;;;2.37;91.21;95895.03;4978685;28;20470;-71
2023/11/28 00:05:56;;;;;;;26.98;23.60;;;;;;;2.35;91.50;95886.50;4983997;28;20402;-69
2023/11/28 00:08:22;;;;;;;29.70;24.00;;;;;;;2.36;91.26;95888.09;4980845;28;20046;-68
2023/11/28 00:10:48;;;;;;;34.63;27.13;;;;;;;2.34;91.00;95892.84;4968614;28;20065;-69
2023/11/28 00:13:13;;;;;;;26.50;23.60;;;;;;;2.36;91.82;95887.28;4964565;28;20038;-69
2023/11/28 00:15:39;;;;;;;34.45;27.80;;;;;;;2.32;91.64;95870.25;4970167;28;20041;-71
2023/11/28 00:18:05;;;;;;;35.28;27.55;;;;;;;2.33;90.86;95866.56;4982665;28;20039;-70
2023/11/28 00:20:30;;;;;;;29.50;25.02;;;;;;;2.37;91.22;95873.78;4964611;28;20112;-70
2023/11/28 00:22:56;;;;;;;25.55;22.83;;;;;;;2.34;90.87;95868.97;4983599;28;20038;-71
2023/11/28 00:25:21;;;;;;;26.83;23.88;;;;;;;2.36;91.19;95866.84;4962340;28;20098;-71
2023/11/28 00:27:47;;;;;;;41.80;30.40;;;;;;;2.38;90.96;95867.41;4959389;28;20492;-71
2023/11/28 00:30:14;;;;;;;30.73;25.35;;;;;;;2.39;91.63;95866.38;4967599;28;20034;-69
2023/11/28 00:32:40;;;;;;;35.92;27.30;;;;;;;2.35;90.81;95849.34;4961930;28;20094;-70
2023/11/28 00:35:06;;;;;;;31.55;26.00;;;;;;;2.41;91.30;95863.44;4968999;28;20022;-71
2023/11/28 00:37:32;;;;;;;33.22;26.40;;;;;;;2.36;91.20;95853.56;4981525;28;20523;-71
2023/11/28 00:39:58;;;;;;;32.35;27.23;;;;;;;2.41;91.60;95864.25;4982131;28;20026;-70
2023/11/28 00:42:25;;;;;;;26.02;22.58;;;;;;;2.41;90.93;95853.63;4980003;28;20034;-72
2023/11/28 00:44:51;;;;;;;34.63;26.27;;;;;;;2.31;91.55;95837.59;4967156;28;20109;-70
2023/11/28 00:47:17;;;;;;;27.75;23.60;;;;;;;2.43;91.04;95851.53;4958836;28;20439;-71
2023/11/28 00:49:43;;;;;;;25.70;22.90;;;;;;;2.45;91.21;95854.72;4986820;28;20037;-71
2023/11/28 00:52:10;;;;;;;35.28;26.63;;;;;;;2.46;91.55;95840.41;4982235;28;20030;-71
2023/11/28 00:54:36;;;;;;;30.73;24.85;;;;;;;2.47;91.16;95850.00;4947400;28;20124;-70
2023/11/28 00:57:02;;;;;;;26.90;23.35;;;;;;;2.47;90.63;95842.03;4950238;28;20402;-71
2023/11/28 00:59:28;;;;;;;35.65;27.30;;;;;;;2.48;90.60;95848.91;4981604;28;20026;-70
2023/11/28 01:01:53;;;;;;;35.28;26.75;;;;;;;2.42;91.63;95841.97;4974840;28;20031;-71
2023/11/28 01:04:19;;;;;;;32.20;26.15;;;;;;;2.41;91.36;95840.34;4984543;28;20026;-70
2023/11/28 01:06:44;;;;;;;29.83;24.52;;;;;;;2.29;91.60;95821.09;4959801;28;20615;-72
2023/11/28 01:09:14;;;;;;;31.08;24.98;;;;;;;2.49;90.84;95850.53;4967931;28;20133;-71
2023/11/28 01:11:40;;;;;;;31.75;24.95;;;;;;;2.49;91.03;95850.53;4962507;28;20113;-70
2023/11/28 01:14:05;;;;;;;27.98;24.55;;;;;;;2.45;91.26;95846.75;4981474;28;20053;-70
2023/11/28 01:16:31;;;;;;;27.80;23.85;;;;;;;2.46;90.73;95845.72;4961331;28;20447;-71
2023/11/28 01:18:56;;;;;;;43.85;31.65;;;;;;;2.50;90.81;95846.81;4965831;28;20027;-71
2023/11/28 01:21:22;;;;;;;31.85;25.67;;;;;;;2.50;90.63;95840.69;4978686;28;20034;-69
2023/11/28 01:23:47;;;;;;;33.65;27.50;;;;;;;2.50;90.62;95838.84;4985788;28;20027;-69
2023/11/28 01:26:13;;;;;;;28.95;24.38;;;;;;;2.46;90.54;95835.09;4975695;28;20118;-70
2023/11/28 01:28:39;;;;;;;39.15;29.42;;;;;;;2.51;91.49;95837.00;4980043;28;20026;-70
2023/11/28 01:31:05;;;;;;;27.02;23.98;;;;;;;2.52;90.94;95839.38;4982328;28;20039;-71
2023/11/28 01:33:30;;;;;;;41.22;29.10;;;;;;;2.53;90.92;95825.06;4964550;28;20394;-70
2023/11/28 01:35:56;;;;;;;31.60;25.40;;;;;;;2.56;90.60;95831.72;4965797;28;20031;-70
2023/11/28 01:38:21;;;;;;;37.33;27.65;;;;;;;2.49;91.06;95823.16;4966144;28;20026;-70
2023/11/28 01:40:50;;;;;;;32.35;25.85;;;;;;;2.52;90.40;95826.09;4975348;28;20058;-71
2023/11/28 01:43:24;;;;;;;35.05;27.08;;;;;;;2.51;90.91;95821.88;4967104;28;20026;-72
2023/11/28 01:45:49;;;;;;;41.60;29.27;;;;;;;2.50;91.14;95822.91;4953646;28;20035;-72
2023/11/28 01:48:15;;;;;;;38.33;27.77;;;;;;;2.53;90.96;95829.56;4968548;28;20019;-71
2023/11/28 01:50:42;;;;;;;43.05;29.40;;;;;;;2.56;90.91;95824.56;4945817;28;20039;-71
2023/11/28 01:53:08;;;;;;;28.38;23.92;;;;;;;2.52;91.22;95826.09;4980031;28;20026;-71
2023/11/28 01:55:33;;;;;;;43.92;30.38;;;;;;;2.57;90.87;95831.47;4961937;28;20045;-72
2023/11/28 01:57:59;;;;;;;42.35;30.08;;;;;;;2.59;90.82;95832.03;4950520;28;20149;-71
2023/11/28 02:00:24;;;;;;;30.98;25.70;;;;;;;2.41;91.40;95805.81;4963373;28;20042;-73
2023/11/28 02:02:50;;;;;;;26.40;23.15;;;;;;;2.59;91.09;95826.69;4960885;28;20480;-71
2023/11/28 02:05:15;;;;;;;32.05;25.23;;;;;;;2.50;90.35;95814.94;4964087;28;20601;-71
2023/11/28 02:07:42;;;;;;;25.30;22.38;;;;;;;2.58;90.72;95827.78;4980326;28;20066;-71
2023/11/28 02:10:08;;;;;;;30.85;25.33;;;;;;;2.54;91.11;95820.56;4982925;28;20039;-71
2023/11/28 02:12:34;;;;;;;41.65;28.85;;;;;;;2.51;91.35;95815.75;4982475;28;20033;-72
2023/11/28 02:15:01;;;;;;;31.30;25.13;;;;;;;2.52;90.87;95812.81;4958117;28;20399;-72
2023/11/28 02:17:26;;;;;;;31.33;24.15;;;;;;;2.58;91.08;95819.81;4982608;28;20482;-71
2023/11/28 02:19:53;;;;;;;28.55;23.42;;;;;;;2.60;90.62;95824.84;4976224;28;20658;-71
2023/11/28 02:22:19;;;;;;;44.47;29.92;;;;;;;2.53;90.51;95803.81;4984852;28;20455;-70
2023/11/28 02:24:46;;;;;;;41.53;28.60;;;;;;;2.61;90.26;95821.16;4960318;28;20047;-70
2023/11/28 02:27:11;;;;;;;47.20;30.17;;;;;;;2.52;91.03;95818.13;4962496;28;20101;-70
2023/11/28 02:29:36;;;;;;;34.22;25.88;;;;;;;2.52;91.11;95823.44;4977839;28;20121;-69
2023/11/28 02:32:02;;;;;;;54.92;33.00;;;;;;;2.54;91.00;95818.72;4982061;28;20118;-71
2023/11/28 02:34:27;;;;;;;32.13;24.48;;;;;;;2.58;90.37;95817.16;4978114;28;20062;-70
2023/11/28 02:36:53;;;;;;;30.05;24.58;;;;;;;2.57;90.36;95810.22;4976633;28;20034;-70
2023/11/28 02:39:18;;;;;;;36.85;26.83;;;;;;;2.53;90.15;95809.13;4979014;28;20411;-70
2023/11/28 02:41:44;;;;;;;57.92;32.67;;;;;;;2.61;90.49;95811.31;4977618;28;20081;-71
2023/11/28 02:44:10;;;;;;;57.05;32.88;;;;;;;2.56;90.42;95813.94;4963176;28;20039;-70
2023/11/28 02:46:35;;;;;;;31.27;25.40;;;;;;;2.60;90.27;95808.91;4979458;28;20026;-70
2023/11/28 02:49:01;;;;;;;32.42;25.00;;;;;;;2.60;90.75;95815.03;4981419;28;20129;-72
2023/11/28 02:51:26;;;;;;;31.13;24.98;;;;;;;2.60;90.54;95793.78;4964563;28;20034;-72
2023/11/28 02:53:51;;;;;;;34.10;25.85;;;;;;;2.60;90.42;95796.44;4956934;28;20035;-71
2023/11/28 02:56:18;;;;;;;32.88;24.90;;;;;;;2.59;90.68;95791.38;4982953;28;20026;-71
2023/11/28 02:58:43;;;;;;;34.25;25.42;;;;;;;2.63;90.68;95795.94;4958833;28;20046;-71
2023/11/28 03:01:09;;;;;;;54.13;31.63;;;;;;;2.64;90.06;95789.56;4983857;28;20064;-70
2023/11/28 03:03:34;;;;;;;33.90;25.85;;;;;;;2.63;90.16;95787.97;4976851;28;20046;-71
2023/11/28 03:06:00;;;;;;;31.42;23.50;;;;;;;2.66;90.66;95786.66;4980297;28;20030;-70
2023/11/28 03:08:25;;;;;;;53.83;31.15;;;;;;;2.68;89.87;95789.88;4959953;28;20089;-68
2023/11/28 03:10:51;;;;;;;36.72;26.83;;;;;;;2.68;89.93;95777.34;4982008;28;20431;-70
2023/11/28 03:13:16;;;;;;;47.17;29.05;;;;;;;2.69;90.46;95776.31;4977938;28;20094;-71
2023/11/28 03:15:42;;;;;;;55.33;31.50;;;;;;;2.62;90.61;95770.41;4966031;28;20053;-70
2023/11/28 03:18:08;;;;;;;62.00;32.70;;;;;;;2.65;89.97;95777.88;4977971;28;20113;-71
2023/11/28 03:20:35;;;;;;;42.65;27.85;;;;;;;2.62;90.14;95781.03;4978557;28;20026;-69
2023/11/28 03:23:00;;;;;;;41.50;26.42;;;;;;;2.64;90.00;95776.28;4963456;28;20499;-70
2023/11/28 03:25:26;;;;;;;30.33;23.42;;;;;;;2.63;90.32;95774.69;4979528;28;20561;-70
2023/11/28 03:27:51;;;;;;;59.85;30.75;;;;;;;2.62;90.33;95774.94;4973154;28;20043;-70
2023/11/28 03:30:17;;;;;;;30.48;23.67;;;;;;;2.63;90.40;95772.03;4982365;28;20040;-71
2023/11/28 03:32:42;;;;;;;32.72;23.95;;;;;;;2.66;89.96;95776.03;4958342;28;20509;-71
2023/11/28 03:35:08;;;;;;;54.70;29.95;;;;;;;2.65;90.45;95775.22;4965489;28;20030;-70
2023/11/28 03:37:34;;;;;;;43.85;28.00;;;;;;;2.55;90.15;95769.81;4978118;28;20390;-69
2023/11/28 03:40:00;;;;;;;55.33;29.70;;;;;;;2.61;90.33;95779.44;4961897;28;20023;-71
2023/11/28 03:42:26;;;;;;;42.83;26.30;;;;;;;2.59;90.68;95786.84;4976550;28;20086;-68
2023/11/28 03:44:52;;;;;;;47.03;28.58;;;;;;;2.62;90.00;95780.25;4963640;28;20030;-69
2023/11/28 03:47:18;;;;;;;54.45;28.70;;;;;;;2.57;89.82;95786.31;4960504;28;20042;-70
2023/11/28 03:49:43;;;;;;;57.95;29.92;;;;;;;2.52;90.43;95786.25;4965733;28;20125;-70
2023/11/28 03:52:08;;;;;;;64.75;31.90;;;;;;;2.54;90.70;95784.19;4978675;28;20045;-70
2023/11/28 03:54:34;;;;;;;60.50;30.98;;;;;;;2.52;90.50;95780.94;4976891;28;20037;-69
2023/11/28 03:56:59;;;;;;;57.75;31.05;;;;;;;2.53;90.16;95777.25;4979380;28;20535;-71
2023/11/28 03:59:25;;;;;;;52.55;29.63;;;;;;;2.51;90.33;95774.06;4978789;28;20026;-70
2023/11/28 04:01:51;;;;;;;45.30;27.02;;;;;;;2.47;90.02;95772.97;4963259;28;20058;-70
2023/11/28 04:04:16;;;;;;;43.13;27.13;;;;;;;2.57;90.49;95777.53;4980577;28;20390;-69
2023/11/28 04:06:42;;;;;;;40.80;26.15;;;;;;;2.56;90.11;95773.28;4974514;28;20599;-71
2023/11/28 04:09:07;;;;;;;63.70;31.83;;;;;;;2.60;89.25;95777.84;4980311;28;20033;-72
2023/11/28 04:11:35;;;;;;;46.92;29.20;;;;;;;2.60;89.71;95761.91;4943791;28;20039;-71
2023/11/28 04:14:02;;;;;;;51.22;29.33;;;;;;;2.63;89.68;95766.72;4944832;28;20486;-70
2023/11/28 04:16:27;;;;;;;68.70;34.50;;;;;;;2.60;89.89;95764.56;4958322;28;20090;-72
2023/11/28 04:18:52;;;;;;;39.80;26.98;;;;;;;2.62;90.04;95765.09;4979975;28;20051;-70
2023/11/28 04:21:20;;;;;;;102.75;42.92;;;;;;;2.60;89.79;95766.41;4975703;28;20035;-71
2023/11/28 04:23:47;;;;;;;82.75;35.35;;;;;;;2.55;89.53;95753.88;4980918;28;20713;-71
2023/11/28 04:26:13;;;;;;;83.10;36.60;;;;;;;2.58;89.97;95769.34;4960323;28;20042;-70
2023/11/28 04:28:39;;;;;;;92.85;36.45;;;;;;;2.52;89.79;95769.56;4976231;28;20418;-70
2023/11/28 04:31:05;;;;;;;59.45;29.77;;;;;;;2.55;89.92;95772.50;4961594;28;20399;-70
2023/11/28 04:33:34;;;;;;;54.10;31.25;;;;;;;2.57;89.54;95765.06;4949116;28;20609;-71
2023/11/28 04:35:59;;;;;;;47.20;28.55;;;;;;;2.59;89.96;95765.59;4978639;28;20122;-71
2023/11/28 04:38:25;;;;;;;72.15;32.65;;;;;;;2.63;89.73;95766.72;4962622;28;20022;-70
2023/11/28 04:40:51;;;;;;;69.25;35.25;;;;;;;2.63;89.51;95766.72;4955478;28;20519;-70
2023/11/28 04:43:16;;;;;;;46.05;28.20;;;;;;;2.64;89.68;95763.00;4981076;28;20086;-70
2023/11/28 04:45:42;;;;;;;42.55;29.10;;;;;;;2.66;89.62;95766.19;4978382;28;20041;-69
2023/11/28 04:48:07;;;;;;;53.72;31.90;;;;;;;2.66;89.23;95768.84;4981386;28;20050;-70
2023/11/28 04:50:33;;;;;;;67.88;36.10;;;;;;;2.67;89.39;95767.81;4977924;28;20062;-70
2023/11/28 04:52:58;;;;;;;68.65;35.78;;;;;;;2.67;89.42;95773.13;4981851;28;20495;-70
2023/11/28 04:55:24;;;;;;;65.03;34.30;;;;;;;2.67;89.32;95767.00;4980224;28;20046;-70
2023/11/28 04:57:49;;;;;;;60.05;31.98;;;;;;;2.69;89.58;95771.00;4967789;28;20026;-73
2023/11/28 05:00:15;;;;;;;67.55;35.47;;;;;;;2.65;89.21;95769.91;4979454;28;20045;-70
2023/11/28 05:02:40;;;;;;;70.63;37.33;;;;;;;2.68;89.51;95768.63;4978165;28;20085;-71
2023/11/28 05:05:07;;;;;;;58.70;34.05;;;;;;;2.66;88.90;95776.81;4980783;28;20069;-70
2023/11/28 05:07:33;;;;;;;63.20;34.45;;;;;;;2.63;89.35;95772.03;4948138;28;20057;-70
2023/11/28 05:09:58;;;;;;;39.67;26.13;;;;;;;2.62;89.40;95775.72;4982344;28;20031;-70
2023/11/28 05:12:24;;;;;;;27.45;19.90;;;;;;;2.63;88.84;95769.38;4966817;28;20498;-70
2023/11/28 05:14:49;;;;;;;27.40;20.85;;;;;;;2.66;88.85;95771.50;4968873;28;20030;-70
2023/11/28 05:17:18;;;;;;;38.17;23.05;;;;;;;2.71;89.15;95776.88;4951950;28;20439;-70
2023/11/28 05:19:43;;;;;;;50.17;26.08;;;;;;;2.72;88.95;95781.13;4945108;28;20034;-71
2023/11/28 05:22:09;;;;;;;32.95;22.23;;;;;;;2.72;89.66;95781.13;4963675;28;20502;-70
2023/11/28 05:24:35;;;;;;;67.07;30.30;;;;;;;2.67;89.60;95772.31;4946182;28;20034;-70
2023/11/28 05:27:01;;;;;;;70.82;28.90;;;;;;;2.69;89.38;95775.50;4981922;28;20030;-72
2023/11/28 05:29:27;;;;;;;44.35;27.38;;;;;;;2.67;89.32;95786.41;4962198;28;20035;-71
2023/11/28 05:31:53;;;;;;;67.97;33.90;;;;;;;2.65;88.92;95783.19;4968217;28;20161;-71
2023/11/28 05:34:19;;;;;;;89.40;39.03;;;;;;;2.51;89.18;95763.44;4947838;28;20118;-70
2023/11/28 05:36:44;;;;;;;176.27;50.42;;;;;;;2.67;89.57;95783.75;4979334;28;20054;-70
2023/11/28 05:39:10;;;;;;;75.75;36.78;;;;;;;2.63;89.32;95785.31;4980367;28;20042;-70
2023/11/28 05:41:36;;;;;;;110.20;43.22;;;;;;;2.61;89.06;95779.44;4979779;28;20026;-70
2023/11/28 05:44:03;;;;;;;166.00;48.60;;;;;;;2.63;89.20;95793.28;4964428;28;20035;-71
2023/11/28 05:46:29;;;;;;;115.00;44.20;;;;;;;2.60;89.49;95799.09;4963451;28;20468;-70
2023/11/28 05:48:54;;;;;;;75.32;35.15;;;;;;;2.53;89.94;95798.50;4981236;28;20121;-69
2023/11/28 05:51:20;;;;;;;77.60;34.95;;;;;;;2.51;89.61;95799.81;4981486;28;20042;-70
2023/11/28 05:53:45;;;;;;;87.90;39.38;;;;;;;2.52;89.96;95807.50;4974898;28;20071;-70
2023/11/28 05:56:12;;;;;;;92.05;38.72;;;;;;;2.51;89.74;95811.25;4980704;28;20113;-70
2023/11/28 05:58:38;;;;;;;62.10;33.72;;;;;;;2.59;89.53;95813.41;4960528;28;20034;-71
2023/11/28 06:01:05;;;;;;;50.42;30.40;;;;;;;2.62;89.91;95815.59;4983151;28;20055;-71
2023/11/28 06:03:31;;;;;;;71.53;35.00;;;;;;;2.63;89.89;95819.84;4978769;28;20041;-71
2023/11/28 06:05:59;;;;;;;71.78;35.75;;;;;;;2.68;89.91;95829.72;4948121;28;20117;-71
2023/11/28 06:08:24;;;;;;;85.85;37.50;;;;;;;2.62;89.76;95823.56;4977211;28;20038;-70
2023/11/28 06:10:50;;;;;;;87.13;39.50;;;;;;;2.56;89.97;95834.41;4965736;28;20023;-71
2023/11/28 06:13:16;;;;;;;85.28;37.78;;;;;;;2.48;90.09;95825.00;4979401;28;20406;-71
2023/11/28 06:15:42;;;;;;;118.30;57.55;;;;;;;2.41;89.26;95820.97;4983292;28;20026;-71
2023/11/28 06:18:09;;;;;;;88.88;48.78;;;;;;;2.49;89.97;95833.78;4978527;28;20097;-70
2023/11/28 06:20:34;;;;;;;68.82;33.78;;;;;;;2.49;90.32;95834.59;4977193;28;20026;-70
2023/11/28 06:23:00;;;;;;;73.53;35.45;;;;;;;2.48;89.83;95838.28;4979597;28;20399;-71
2023/11/28 06:25:25;;;;;;;77.80;35.22;;;;;;;2.45;90.54;95844.09;4980181;28;20050;-71
2023/11/28 06:27:51;;;;;;;82.07;36.88;;;;;;;2.46;89.70;95851.03;4981701;28;20042;-70
2023/11/28 06:30:16;;;;;;;113.05;41.75;;;;;;;2.41;90.65;95845.66;4981875;28;20026;-70
2023/11/28 06:32:41;;;;;;;82.70;40.97;;;;;;;2.43;89.75;95856.84;4976051;28;20483;-70
2023/11/28 06:35:09;;;;;;;75.13;32.65;;;;;;;2.27;90.31;95836.50;4965114;28;20118;-71
2023/11/28 06:37:35;;;;;;;104.90;46.22;;;;;;;2.39;90.55;95858.41;4976339;28;20042;-70
2023/11/28 06:40:00;;;;;;;90.60;38.65;;;;;;;2.35;90.17;95859.97;4978195;28;20022;-71
2023/11/28 06:42:25;;;;;;;100.55;46.95;;;;;;;2.32;90.63;95875.56;4977243;28;20031;-70
2023/11/28 06:44:51;;;;;;;86.38;35.75;;;;;;;2.29;91.04;95871.56;4982354;28;20119;-71
2023/11/28 06:47:16;;;;;;;56.60;29.90;;;;;;;2.32;90.72;95876.38;4961318;28;20101;-71
2023/11/28 06:49:46;;;;;;;87.28;34.63;;;;;;;2.24;91.00;95871.50;4976348;28;20028;-70
2023/11/28 06:52:13;;;;;;;79.72;34.47;;;;;;;2.30;91.19;95894.41;4962125;28;20114;-70
2023/11/28 06:54:39;;;;;;;85.55;34.58;;;;;;;2.31;90.55;95896.00;4960613;28;20022;-71
2023/11/28 06:57:05;;;;;;;66.40;32.28;;;;;;;2.31;90.72;95893.34;4962929;28;20078;-70
2023/11/28 06:59:30;;;;;;;68.18;32.90;;;;;;;2.27;90.90;95905.53;4979799;28;20019;-70
2023/11/28 07:01:55;;;;;;;76.75;33.00;;;;;;;2.24;90.64;95906.00;4981221;28;20034;-71
2023/11/28 07:04:22;;;;;;;93.53;36.45;;;;;;;2.10;90.73;95888.88;4979556;28;20026;-73
2023/11/28 07:06:47;;;;;;;66.97;30.05;;;;;;;2.28;91.35;95909.00;4956418;28;20073;-71
2023/11/28 07:09:13;;;;;;;74.03;35.67;;;;;;;2.28;90.89;95914.31;4964531;28;20062;-71
2023/11/28 07:11:40;;;;;;;79.78;32.83;;;;;;;2.19;91.35;95905.97;4974884;28;20045;-70
2023/11/28 07:14:06;;;;;;;56.70;26.73;;;;;;;2.31;90.93;95919.91;4983121;28;20026;-71
2023/11/28 07:16:31;;;;;;;50.97;26.23;;;;;;;2.28;90.86;95917.75;4978102;28;20049;-71
2023/11/28 07:18:58;;;;;;;58.97;27.83;;;;;;;2.17;90.69;95900.09;4962752;28;20114;-71
2023/11/28 07:21:24;;;;;;;44.78;24.48;;;;;;;2.31;90.67;95927.09;4977077;28;20042;-70
2023/11/28 07:23:49;;;;;;;46.55;25.00;;;;;;;2.30;91.07;95920.97;4982385;28;20027;-71
2023/11/28 07:26:15;;;;;;;54.42;25.85;;;;;;;2.27;91.37;95932.09;4955539;28;20049;-72
2023/11/28 07:28:41;;;;;;;62.40;28.95;;;;;;;2.21;90.71;95927.78;4955783;28;20546;-72
2023/11/28 07:31:06;;;;;;;53.90;27.35;;;;;;;2.31;91.16;95943.03;4979518;28;20097;-71
2023/11/28 07:33:32;;;;;;;57.88;30.23;;;;;;;2.32;90.38;95945.41;4974101;28;20431;-71
2023/11/28 07:35:57;;;;;;;48.13;26.80;;;;;;;2.38;90.50;95949.72;4979825;28;20039;-71
2023/11/28 07:38:24;;;;;;;40.17;24.27;;;;;;;2.41;91.13;95954.56;4980092;28;20474;-71
2023/11/28 07:40:50;;;;;;;45.88;26.98;;;;;;;2.34;90.69;95938.00;4972849;28;20035;-70
2023/11/28 07:43:16;;;;;;;39.58;24.60;;;;;;;2.47;90.85;95958.88;4982769;28;20537;-71
2023/11/28 07:45:41;;;;;;;40.58;23.33;;;;;;;2.51;90.13;95962.66;4974046;28;20105;-71
2023/11/28 07:48:07;;;;;;;33.17;21.80;;;;;;;2.43;90.45;95952.44;4954803;28;20029;-70
2023/11/28 07:50:32;;;;;;;40.45;25.33;;;;;;;2.49;90.20;95961.28;4958463;28;20069;-71
2023/11/28 07:52:58;;;;;;;41.92;25.52;;;;;;;2.38;90.23;95978.16;4946275;28;20018;-70
2023/11/28 07:55:23;;;;;;;37.88;23.77;;;;;;;2.39;90.94;95977.91;4973692;28;20038;-71
2023/11/28 07:57:49;;;;;;;32.70;21.65;;;;;;;2.34;90.45;95983.16;4962528;28;20015;-71
2023/11/28 08:00:14;;;;;;;35.65;21.95;;;;;;;2.31;91.37;95986.28;4958208;28;20034;-72
2023/11/28 08:02:41;;;;;;;26.25;19.40;;;;;;;2.37;91.06;95985.31;4966279;28;20028;-70
2023/11/28 08:05:07;;;;;;;29.77;19.90;;;;;;;2.44;90.48;95985.94;4976300;28;20023;-71
2023/11/28 08:07:33;;;;;;;28.17;20.15;;;;;;;2.54;90.14;95996.69;4977758;28;20221;-71
2023/11/28 08:10:03;;;;;;;24.92;18.10;;;;;;;2.55;90.39;95998.28;4979511;28;20057;-73
2023/11/28 08:12:28;;;;;;;22.13;17.05;;;;;;;2.54;89.84;95996.69;4961555;28;20495;-72
2023/11/28 08:14:57;;;;;;;21.42;17.33;;;;;;;2.52;90.30;95992.69;4954155;28;20091;-72
2023/11/28 08:17:22;;;;;;;24.27;18.35;;;;;;;2.60;90.16;96016.94;4958412;28;20066;-73
2023/11/28 08:19:49;;;;;;;21.42;16.83;;;;;;;2.46;90.16;95999.78;4975079;28;20126;-73
2023/11/28 08:22:14;;;;;;;20.05;15.88;;;;;;;2.50;90.64;96022.13;4986084;28;20122;-73
2023/11/28 08:24:39;;;;;;;19.90;16.08;;;;;;;2.58;90.43;96024.38;4978268;28;20145;-72
2023/11/28 08:27:05;;;;;;;19.00;15.57;;;;;;;2.57;89.80;96033.38;4980847;28;20545;-73
2023/11/28 08:29:30;;;;;;;16.48;14.02;;;;;;;2.42;90.35;96025.22;4962235;28;20058;-73
2023/11/28 08:31:58;;;;;;;15.00;12.98;;;;;;;2.57;90.18;96045.84;4967006;28;20507;-72
2023/11/28 08:34:24;;;;;;;16.42;13.10;;;;;;;2.51;89.44;96039.69;4980586;28;20051;-71
2023/11/28 08:36:51;;;;;;;13.45;11.50;;;;;;;2.51;89.58;96050.31;4968368;28;20057;-71
2023/11/28 08:39:16;;;;;;;12.10;10.65;;;;;;;2.47;89.61;96059.81;4963221;28;20110;-72
2023/11/28 08:41:42;;;;;;;14.30;12.00;;;;;;;2.44;90.06;96070.94;4963095;28;20145;-71
2023/11/28 08:44:08;;;;;;;13.93;11.65;;;;;;;2.45;90.21;96069.88;4966704;28;20022;-72
2023/11/28 08:46:35;;;;;;;14.48;11.75;;;;;;;2.49;89.89;96081.63;4983884;28;20050;-72
2023/11/28 08:49:00;;;;;;;9.75;8.75;;;;;;;2.39;89.79;96078.81;4943582;28;20033;-71
2023/11/28 08:51:25;;;;;;;10.77;9.15;;;;;;;2.42;89.57;96088.97;4985620;28;20031;-72
2023/11/28 08:53:51;;;;;;;9.93;8.93;;;;;;;2.27;89.13;96080.78;4976849;28;20031;-73
2023/11/28 08:56:16;;;;;;;10.15;8.95;;;;;;;2.43;89.65;96101.19;4968141;28;20431;-72
2023/11/28 08:58:42;;;;;;;9.75;8.75;;;;;;;2.37;89.56;96101.38;4978545;28;20113;-73
2023/11/28 09:01:07;;;;;;;10.70;9.32;;;;;;;2.49;89.56;96112.69;4986375;28;20042;-72
2023/11/28 09:03:32;;;;;;;9.07;8.18;;;;;;;2.51;88.67;96118.56;4980118;28;20026;-73
2023/11/28 09:05:58;;;;;;;8.38;7.57;;;;;;;2.50;89.22;96131.03;4963622;28;20058;-73
2023/11/28 09:08:23;;;;;;;8.80;7.75;;;;;;;2.47;89.11;96142.16;4979667;28;20018;-73
2023/11/28 09:10:49;;;;;;;9.10;8.25;;;;;;;2.36;89.17;96121.81;4967597;28;20041;-73
2023/11/28 09:13:14;;;;;;;7.85;7.05;;;;;;;2.34;89.81;96144.34;4963358;28;20511;-73
2023/11/28 09:15:40;;;;;;;8.52;7.55;;;;;;;2.41;89.45;96156.41;4961967;28;20044;-72
2023/11/28 09:18:05;;;;;;;6.70;6.20;;;;;;;2.36;89.07;96148.34;4965047;28;20177;-72
2023/11/28 09:20:31;;;;;;;7.82;7.13;;;;;;;2.29;89.56;96162.88;4965198;28;20038;-72
2023/11/28 09:22:56;;;;;;;7.10;6.45;;;;;;;2.20;89.49;96159.78;4966353;28;20019;-72
2023/11/28 09:25:21;;;;;;;7.13;6.45;;;;;;;2.25;89.23;96175.00;4983149;28;20088;-72
2023/11/28 09:27:47;;;;;;;6.93;6.30;;;;;;;2.14;89.80;96187.31;4976703;28;20037;-71
2023/11/28 09:30:13;;;;;;;7.32;6.63;;;;;;;2.08;89.94;96180.31;4984011;28;20038;-72
2023/11/28 09:32:38;;;;;;;7.25;6.63;;;;;;;2.08;89.76;96193.56;4978406;28;20034;-72
2023/11/28 09:35:05;;;;;;;7.03;6.43;;;;;;;2.12;88.93;96200.03;4967522;28;20042;-72
2023/11/28 09:37:30;;;;;;;7.97;7.28;;;;;;;2.10;89.67;96204.78;4962904;28;20368;-72
2023/11/28 09:39:56;;;;;;;7.60;7.00;;;;;;;1.95;88.96;96186.75;4980176;28;20037;-73
2023/11/28 09:42:22;;;;;;;7.07;6.47;;;;;;;2.03;89.53;96212.09;4976230;28;20019;-71
2023/11/28 09:44:48;;;;;;;7.88;7.18;;;;;;;1.86;89.75;96211.25;4983385;28;20387;-72
2023/11/28 09:47:17;;;;;;;8.25;7.50;;;;;;;1.91;88.89;96211.34;4979483;28;20490;-72
2023/11/28 09:49:43;;;;;;;8.20;7.47;;;;;;;1.90;88.93;96223.00;4968336;28;20129;-73
2023/11/28 09:52:10;;;;;;;7.07;6.45;;;;;;;1.92;89.85;96236.81;4980640;28;20098;-72
2023/11/28 09:54:38;;;;;;;7.13;6.50;;;;;;;2.00;88.51;96244.41;4979658;28;20077;-73
2023/11/28 09:57:05;;;;;;;8.38;7.60;;;;;;;1.99;88.60;96237.47;4964527;28;20033;-71
2023/11/28 09:59:31;;;;;;;8.40;7.63;;;;;;;1.88;89.23;96231.19;4964797;28;20085;-71
2023/11/28 10:01:57;;;;;;;7.93;7.30;;;;;;;1.88;89.21;96235.69;4957624;28;20019;-71
2023/11/28 10:04:23;;;;;;;9.25;8.45;;;;;;;1.78;87.74;96243.47;4966557;28;20042;-72
2023/11/28 10:06:50;;;;;;;8.98;8.25;;;;;;;1.71;88.48;96262.19;4975081;28;20034;-70
2023/11/28 10:09:16;;;;;;;9.02;8.23;;;;;;;1.74;88.22;96260.91;4984532;28;20053;-71
2023/11/28 10:11:42;;;;;;;9.18;8.38;;;;;;;1.73;88.41;96264.59;4977605;28;20122;-70
2023/11/28 10:14:08;;;;;;;11.23;10.23;;;;;;;1.76;88.80;96274.72;4979754;28;20066;-71
2023/11/28 10:16:41;;;;;;;9.75;8.95;;;;;;;1.70;88.45;96289.75;4959883;28;20443;-72
2023/11/28 10:19:07;;;;;;;9.70;8.80;;;;;;;1.71;88.39;96287.91;4958250;28;20046;-72
2023/11/28 10:21:33;;;;;;;8.43;7.75;;;;;;;1.64;87.86;96287.22;4978419;28;20449;-71
2023/11/28 10:23:59;;;;;;;7.68;7.07;;;;;;;1.68;87.11;96294.47;4965830;28;20044;-71
2023/11/28 10:26:24;;;;;;;8.88;8.07;;;;;;;1.92;86.71;96297.88;4979432;28;20027;-72
2023/11/28 10:28:50;;;;;;;8.35;7.65;;;;;;;1.87;86.41;96303.88;4977332;28;20450;-72
2023/11/28 10:31:18;;;;;;;9.07;8.38;;;;;;;1.63;86.52;96288.28;4980138;28;20065;-71
2023/11/28 10:33:43;;;;;;;10.98;9.90;;;;;;;1.80;86.50;96313.00;4961739;28;20410;-72
2023/11/28 10:36:10;;;;;;;8.43;7.65;;;;;;;1.62;87.22;96321.13;4981582;28;20026;-72
2023/11/28 10:38:37;;;;;;;9.35;8.55;;;;;;;1.53;87.94;96322.53;4979063;28;20093;-71
2023/11/28 10:41:03;;;;;;;9.88;8.98;;;;;;;1.58;88.23;96320.00;4957583;28;20045;-71
2023/11/28 10:43:31;;;;;;;9.77;8.82;;;;;;;1.54;87.19;96334.78;4965720;28;20042;-72
2023/11/28 10:45:57;;;;;;;11.55;10.55;;;;;;;1.63;87.14;96338.69;4976737;28;20055;-71
2023/11/28 10:48:23;;;;;;;10.18;9.27;;;;;;;1.49;87.55;96319.56;4967702;28;20380;-71
2023/11/28 10:50:49;;;;;;;9.25;8.45;;;;;;;1.60;87.10;96344.44;4976408;28;20057;-71
2023/11/28 10:53:16;;;;;;;8.80;7.90;;;;;;;1.62;87.42;96352.97;4977960;28;20042;-71
2023/11/28 10:55:43;;;;;;;9.23;8.38;;;;;;;1.35;86.89;96347.38;4977628;28;20027;-71
2023/11/28 10:58:16;;;;;;;9.10;8.40;;;;;;;1.54;86.58;96362.09;4961726;28;20043;-71
2023/11/28 11:00:44;;;;;;;8.52;7.72;;;;;;;1.52;87.51;96352.78;4963774;28;20034;-71
2023/11/28 11:03:11;;;;;;;8.40;7.70;;;;;;;1.48;86.88;96375.47;4981894;28;20035;-71
2023/11/28 11:05:37;;;;;;;11.77;10.68;;;;;;;1.51;86.67;96359.09;4962051;28;20041;-71
2023/11/28 11:08:03;;;;;;;8.57;7.78;;;;;;;1.60;86.19;96378.94;4961440;28;20038;-71
2023/11/28 11:10:30;;;;;;;9.30;8.43;;;;;;;1.59;86.13;96386.06;4961906;28;20031;-71
2023/11/28 11:13:08;;;;;;;9.77;8.95;;;;;;;1.64;86.55;96382.72;4977115;28;20031;-71
2023/11/28 11:15:44;;;;;;;8.65;7.95;;;;;;;1.60;86.52;96397.50;4963798;28;20048;-71
2023/11/28 11:18:15;;;;;;;9.27;8.50;;;;;;;1.54;86.77;96407.19;4947971;28;20031;-71
2023/11/28 11:20:41;;;;;;;8.13;7.38;;;;;;;1.60;86.15;96413.41;4973863;28;20278;-71
2023/11/28 11:23:08;;;;;;;8.68;7.70;;;;;;;1.51;86.18;96415.63;4962211;28;20711;-71